首页
METAR-TAF:

METAR-TAF

机场 :

德里, 北爱尔兰

纬度: 55-03N, 经度: 007-09W, 海拔: 9米

当前天气观测

该预报发布于28分钟前的08:50 UTC
风速15节,风向
温度 11°C
湿度 76%
气压 994 hPa
能见度10公里或以上
少量云层高于1800英尺

METAR: EGAE 170850Z 18015KT 9999 FEW018 11/07 Q0994

时间: 10:18 (09:18 UTC)

预报

该预报发布于1小时和12分钟前的08:06 UTC
预报有效从17日的 09点(UTC)到 17日的 18点(UTC)
风速12节,风向南转南东
能见度10公里或以上
散云层高于2500英尺
几率 30% :
短暂存在
从 17日的 09点(UTC)到 17日的 10点(UTC)
风速15节,风向南转南东,有时为25节阵风
几率 30% :
短暂存在
从 17日的 10点(UTC)到 17日的 12点(UTC)
能見度: 7000
阵雨
短暂存在
从 17日的 12点(UTC)到 17日的 18点(UTC)
能見度: 6000
阵雨
几率 30% :
短暂存在
从 17日的 13点(UTC)到 17日的 18点(UTC)
能見度: 3000
大阵雨, 雷暴, 大雨

TAF: EGAE 170806Z 1709/1718 16012KT 9999 SCT025 PROB30 TEMPO 1709/1710 16015G25KT PROB30 TEMPO 1710/1712 7000 SHRA TEMPO 1712/1718 6000 SHRA PROB30 TEMPO 1713/1718 3000 +SHRA +TSRA

超过4000个机场的气象观测和天气预报(METAR&TAF报告)。

可查询的气象台以黄色和红色小点在地图上表示。

将鼠标移到小点上方,可查看气象台名称。

然后点击查看天气观测和预报。

如需切换地图:点击带黑十字的绿色按钮放大地图;点击带横线的绿色按钮缩小地图;或者点击绿色箭头查看邻近地区的地图。


METAR-TAF: